createdAt,value
2018-10-17T00:01:33.976Z,85.80
2018-10-17T00:04:02.151Z,86.00
2018-10-17T00:06:30.326Z,86.20
2018-10-17T00:08:58.527Z,85.90
2018-10-17T00:11:26.699Z,86.00
2018-10-17T00:13:54.879Z,85.70
2018-10-17T00:16:23.055Z,85.70
2018-10-17T00:18:51.246Z,85.90
2018-10-17T00:21:19.403Z,86.10
2018-10-17T00:23:47.582Z,86.00
2018-10-17T00:26:15.747Z,86.20
2018-10-17T00:28:43.923Z,86.10
2018-10-17T00:31:12.185Z,86.30
2018-10-17T00:33:40.368Z,86.10
2018-10-17T00:36:08.588Z,85.80
2018-10-17T00:38:36.780Z,85.70
2018-10-17T00:41:05.032Z,85.80
2018-10-17T00:43:33.151Z,86.70
2018-10-17T00:46:01.319Z,86.40
2018-10-17T00:48:29.499Z,86.80
2018-10-17T00:50:57.666Z,86.70
2018-10-17T00:53:25.835Z,86.80
2018-10-17T00:55:54.462Z,86.60
2018-10-17T00:58:22.634Z,86.20
2018-10-17T01:00:50.815Z,86.30
2018-10-17T01:03:19.014Z,86.50
2018-10-17T01:05:47.199Z,86.60
2018-10-17T01:08:15.375Z,86.60
2018-10-17T01:10:43.555Z,87.10
2018-10-17T01:13:11.768Z,87.10
2018-10-17T01:15:39.957Z,86.70
2018-10-17T01:18:08.127Z,86.60
2018-10-17T01:20:36.330Z,86.90
2018-10-17T01:23:04.698Z,86.60
2018-10-17T01:25:32.823Z,86.60
2018-10-17T01:28:00.987Z,86.60
2018-10-17T01:30:29.167Z,86.70
2018-10-17T01:32:57.331Z,86.60
2018-10-17T01:35:25.515Z,86.60
2018-10-17T01:37:53.678Z,86.60
2018-10-17T01:40:21.893Z,86.60
2018-10-17T01:42:50.034Z,87.20
2018-10-17T01:45:18.211Z,87.10
2018-10-17T01:47:46.387Z,86.80
2018-10-17T01:50:14.571Z,86.60
2018-10-17T01:52:42.733Z,86.60
2018-10-17T01:55:10.953Z,86.80
2018-10-17T01:57:39.074Z,86.70
2018-10-17T02:00:07.413Z,86.70
2018-10-17T02:02:35.599Z,86.60
2018-10-17T02:05:03.850Z,86.80
2018-10-17T02:07:32.065Z,86.80
2018-10-17T02:10:00.311Z,86.70
2018-10-17T02:12:28.528Z,86.60
2018-10-17T02:14:56.710Z,86.90
2018-10-17T02:17:24.904Z,86.90
2018-10-17T02:19:53.084Z,87.80
2018-10-17T02:22:21.271Z,88.20
2018-10-17T02:24:49.591Z,88.30
2018-10-17T02:27:17.783Z,87.30
2018-10-17T02:29:45.968Z,87.00
2018-10-17T02:32:14.155Z,87.00
2018-10-17T02:34:47.674Z,86.60
2018-10-17T02:37:15.985Z,87.80
2018-10-17T02:39:44.125Z,87.80
2018-10-17T02:42:12.994Z,88.40
2018-10-17T02:44:41.698Z,88.70
2018-10-17T02:47:09.969Z,88.30
2018-10-17T02:49:38.075Z,88.30
2018-10-17T02:52:06.263Z,88.80
2018-10-17T02:54:34.627Z,87.80
2018-10-17T02:57:02.819Z,88.10
2018-10-17T02:59:31.021Z,88.40
2018-10-17T03:01:59.265Z,88.00
2018-10-17T03:04:27.485Z,88.10
2018-10-17T03:06:55.737Z,88.10
2018-10-17T03:09:23.871Z,88.00
2018-10-17T03:11:52.052Z,88.80
2018-10-17T03:14:20.214Z,88.30
2018-10-17T03:16:48.387Z,88.20
2018-10-17T03:19:16.635Z,88.50
2018-10-17T03:21:44.751Z,88.20
2018-10-17T03:24:12.927Z,88.20
2018-10-17T03:26:41.092Z,88.20
2018-10-17T03:29:09.340Z,88.30
2018-10-17T03:31:37.486Z,88.00
2018-10-17T03:34:05.753Z,88.30
2018-10-17T03:36:33.919Z,88.50
2018-10-17T03:39:02.103Z,88.50
2018-10-17T03:41:30.266Z,88.50
2018-10-17T03:43:58.450Z,88.70
2018-10-17T03:46:27.275Z,89.10
2018-10-17T03:48:55.508Z,89.20
2018-10-17T03:51:23.643Z,89.80
2018-10-17T03:53:51.882Z,88.90
2018-10-17T03:56:20.101Z,88.90
2018-10-17T03:58:48.319Z,88.90
2018-10-17T04:01:16.592Z,88.50
2018-10-17T04:03:44.682Z,88.40
2018-10-17T04:06:12.842Z,88.50
2018-10-17T04:08:41.015Z,88.60
2018-10-17T04:11:09.259Z,88.50
2018-10-17T04:13:37.394Z,88.50
2018-10-17T04:16:05.563Z,88.50
2018-10-17T04:18:33.739Z,88.60
2018-10-17T04:21:02.111Z,89.10
2018-10-17T04:23:30.300Z,88.70
2018-10-17T04:25:58.463Z,88.60
2018-10-17T04:28:26.635Z,88.50
2018-10-17T04:30:54.836Z,88.90
2018-10-17T04:33:23.072Z,89.20
2018-10-17T04:35:51.264Z,89.40
2018-10-17T04:38:19.456Z,89.60
2018-10-17T04:40:47.667Z,89.50
2018-10-17T04:43:16.042Z,89.20
2018-10-17T04:45:44.194Z,88.60
2018-10-17T04:48:12.364Z,88.80
2018-10-17T04:50:40.701Z,88.90
2018-10-17T04:53:09.886Z,89.00
2018-10-17T04:55:38.054Z,88.50
2018-10-17T04:58:06.260Z,88.70
2018-10-17T05:00:34.426Z,89.20
2018-10-17T05:03:02.594Z,88.40
2018-10-17T05:05:30.830Z,88.60
2018-10-17T05:07:59.100Z,88.70
2018-10-17T05:10:27.468Z,88.80
2018-10-17T05:12:55.912Z,88.80
2018-10-17T05:15:24.241Z,88.80
2018-10-17T05:17:52.380Z,88.80
2018-10-17T05:20:20.829Z,88.80
2018-10-17T05:22:49.341Z,88.70
2018-10-17T05:25:18.259Z,88.90
2018-10-17T05:27:46.915Z,88.70
2018-10-17T05:30:15.149Z,88.90
2018-10-17T05:32:43.351Z,88.80
2018-10-17T05:35:12.242Z,88.80
2018-10-17T05:37:40.399Z,89.00
2018-10-17T05:40:08.511Z,89.20
2018-10-17T05:42:36.707Z,89.30
2018-10-17T05:45:06.040Z,89.40
2018-10-17T05:47:34.370Z,89.10
2018-10-17T05:50:02.667Z,89.50
2018-10-17T05:52:30.968Z,89.90
2018-10-17T05:54:59.163Z,89.60
2018-10-17T05:57:27.339Z,89.90
2018-10-17T05:59:55.544Z,90.00
2018-10-17T06:02:26.443Z,90.10
2018-10-17T06:04:55.160Z,90.30
2018-10-17T06:07:23.532Z,90.30
2018-10-17T06:09:52.343Z,90.30
2018-10-17T06:12:20.615Z,90.40
2018-10-17T06:14:48.807Z,90.40
2018-10-17T06:17:17.041Z,90.40
2018-10-17T06:19:45.306Z,90.40
2018-10-17T06:22:13.609Z,90.50
2018-10-17T06:24:41.935Z,90.60
2018-10-17T06:27:10.913Z,90.60
2018-10-17T06:29:39.094Z,90.60
2018-10-17T06:32:07.299Z,90.20
2018-10-17T06:34:35.553Z,90.20
2018-10-17T06:37:05.487Z,90.20
2018-10-17T06:39:33.752Z,90.30
2018-10-17T06:42:02.022Z,90.40
2018-10-17T06:44:30.237Z,90.30
2018-10-17T06:46:58.512Z,90.00
2018-10-17T06:49:26.655Z,90.10
2018-10-17T06:51:54.848Z,90.00
2018-10-17T06:54:23.123Z,89.50
2018-10-17T06:56:51.471Z,89.10
2018-10-17T06:59:19.675Z,89.10
2018-10-17T07:01:47.997Z,88.70
2018-10-17T07:04:16.072Z,88.10
2018-10-17T07:06:44.258Z,88.00
2018-10-17T07:09:12.460Z,87.90
2018-10-17T07:11:40.655Z,88.40
2018-10-17T07:14:08.831Z,87.30
2018-10-17T07:16:37.004Z,87.10
2018-10-17T07:19:05.305Z,86.90
2018-10-17T07:21:33.396Z,86.90
2018-10-17T07:24:01.579Z,87.00
2018-10-17T07:26:29.783Z,87.80
2018-10-17T07:28:58.018Z,87.00
2018-10-17T07:31:26.180Z,86.30
2018-10-17T07:33:54.392Z,85.30
2018-10-17T07:36:22.603Z,85.30
2018-10-17T07:38:50.831Z,85.00
2018-10-17T07:41:19.007Z,85.10
2018-10-17T07:43:47.203Z,84.20
2018-10-17T07:46:15.375Z,83.70
2018-10-17T07:48:43.590Z,83.80
2018-10-17T07:51:11.784Z,83.70
2018-10-17T07:53:40.026Z,82.50
2018-10-17T07:56:08.211Z,82.70
2018-10-17T07:58:36.428Z,82.90
2018-10-17T08:01:04.650Z,82.50
2018-10-17T08:03:32.848Z,82.40
2018-10-17T08:06:01.081Z,81.90
2018-10-17T08:08:29.247Z,81.50
2018-10-17T08:10:57.451Z,81.20
2018-10-17T08:13:25.775Z,81.40
2018-10-17T08:15:53.972Z,81.10
2018-10-17T08:18:22.149Z,80.90
2018-10-17T08:20:50.335Z,81.20
2018-10-17T08:23:18.511Z,80.10
2018-10-17T08:25:46.704Z,78.50
2018-10-17T08:28:14.907Z,78.50
2018-10-17T08:30:43.347Z,78.70
2018-10-17T08:33:11.573Z,77.90
2018-10-17T08:35:39.907Z,77.90
2018-10-17T08:38:08.072Z,77.80
2018-10-17T08:40:36.268Z,76.80
2018-10-17T08:43:05.295Z,77.00
2018-10-17T08:45:33.527Z,77.10
2018-10-17T08:48:01.694Z,78.10
2018-10-17T08:50:29.927Z,76.60
2018-10-17T08:52:58.059Z,75.60
2018-10-17T08:55:26.247Z,75.80
2018-10-17T08:57:54.510Z,75.70
2018-10-17T09:00:22.612Z,74.30
2018-10-17T09:02:50.795Z,74.60
2018-10-17T09:05:18.978Z,73.90
2018-10-17T09:07:47.214Z,73.50
2018-10-17T09:10:15.371Z,73.40
2018-10-17T09:12:43.599Z,72.90
2018-10-17T09:15:11.791Z,71.60
2018-10-17T09:17:40.023Z,72.90
2018-10-17T09:20:08.979Z,72.40
2018-10-17T09:22:37.104Z,72.80
2018-10-17T09:25:05.848Z,71.10
2018-10-17T09:27:34.095Z,71.40
2018-10-17T09:30:02.434Z,71.30
2018-10-17T09:32:30.610Z,72.50
2018-10-17T09:34:58.855Z,70.40
2018-10-17T09:37:27.163Z,71.70
2018-10-17T09:39:55.370Z,69.00
2018-10-17T09:42:23.555Z,70.70
2018-10-17T09:44:51.755Z,71.40
2018-10-17T09:47:19.969Z,72.00
2018-10-17T09:49:48.160Z,69.60
2018-10-17T09:52:16.472Z,70.70
2018-10-17T09:54:44.571Z,69.70
2018-10-17T09:57:12.793Z,69.90
2018-10-17T09:59:40.981Z,69.60
2018-10-17T10:02:09.240Z,68.60
2018-10-17T10:04:37.391Z,68.70
2018-10-17T10:07:05.611Z,67.80
2018-10-17T10:09:33.811Z,68.00
2018-10-17T10:12:02.040Z,68.00
2018-10-17T10:14:30.194Z,67.60
2018-10-17T10:16:58.445Z,67.30
2018-10-17T10:19:26.552Z,66.40
2018-10-17T10:21:54.754Z,67.10
2018-10-17T10:24:22.959Z,66.80
2018-10-17T10:26:51.172Z,66.30
2018-10-17T10:29:19.404Z,66.80
2018-10-17T10:31:47.616Z,66.00
2018-10-17T10:34:15.935Z,64.50
2018-10-17T10:36:44.048Z,65.90
2018-10-17T10:39:13.035Z,65.10
2018-10-17T10:41:41.514Z,62.70
2018-10-17T10:44:09.731Z,63.50
2018-10-17T10:46:37.890Z,62.80
2018-10-17T10:49:06.084Z,61.70
2018-10-17T10:51:34.306Z,61.90
2018-10-17T10:54:02.547Z,59.80
2018-10-17T10:56:30.631Z,62.10
2018-10-17T10:58:58.865Z,61.90
2018-10-17T11:01:26.999Z,63.20
2018-10-17T11:03:55.196Z,60.70
2018-10-17T11:06:23.375Z,60.30
2018-10-17T11:08:51.577Z,60.40
2018-10-17T11:11:19.879Z,60.00
2018-10-17T11:13:48.052Z,59.20
2018-10-17T11:16:16.199Z,59.80
2018-10-17T11:18:44.413Z,60.50
2018-10-17T11:21:12.656Z,59.90
2018-10-17T11:23:40.869Z,61.20
2018-10-17T11:26:09.117Z,60.00
2018-10-17T11:28:37.340Z,58.40
2018-10-17T11:31:05.576Z,57.50
2018-10-17T11:33:33.796Z,56.10
2018-10-17T11:36:01.988Z,58.10
2018-10-17T11:38:30.180Z,55.60
2018-10-17T11:40:58.465Z,54.20
2018-10-17T11:43:26.573Z,55.40
2018-10-17T11:45:54.762Z,55.40
2018-10-17T11:48:22.934Z,56.40
2018-10-17T11:50:51.138Z,56.40
2018-10-17T11:53:19.300Z,55.90
2018-10-17T11:55:47.495Z,54.40
2018-10-17T11:58:15.692Z,55.10
2018-10-17T12:00:43.874Z,55.00
2018-10-17T12:03:12.114Z,52.40
2018-10-17T12:05:40.597Z,54.20
2018-10-17T12:08:08.449Z,53.10
2018-10-17T12:10:36.695Z,54.10
2018-10-17T12:13:04.884Z,53.50
2018-10-17T12:15:33.046Z,53.20
2018-10-17T12:18:01.291Z,50.70
2018-10-17T12:20:29.407Z,52.10
2018-10-17T12:22:57.575Z,51.30
2018-10-17T12:25:25.754Z,52.80
2018-10-17T12:27:54.058Z,52.10
2018-10-17T12:30:22.103Z,49.50
2018-10-17T12:32:50.268Z,50.00
2018-10-17T12:35:18.581Z,50.80
2018-10-17T12:37:46.615Z,50.60
2018-10-17T12:40:14.935Z,47.40
2018-10-17T12:42:42.959Z,48.80
2018-10-17T12:45:11.223Z,50.30
2018-10-17T12:47:39.364Z,48.40
2018-10-17T12:50:08.346Z,46.10
2018-10-17T12:52:36.577Z,47.20
2018-10-17T12:55:05.899Z,48.70
2018-10-17T12:57:33.950Z,45.40
2018-10-17T13:00:02.114Z,46.40
2018-10-17T13:02:30.278Z,46.00
2018-10-17T13:04:58.450Z,45.90
2018-10-17T13:07:26.616Z,44.70
2018-10-17T13:09:55.098Z,44.00
2018-10-17T13:12:23.519Z,44.10
2018-10-17T13:14:51.765Z,46.50
2018-10-17T13:17:19.852Z,47.00
2018-10-17T13:19:48.011Z,47.30
2018-10-17T13:22:16.186Z,46.80
2018-10-17T13:24:44.448Z,44.80
2018-10-17T13:27:12.572Z,44.10
2018-10-17T13:29:40.756Z,44.10
2018-10-17T13:32:08.938Z,46.70
2018-10-17T13:34:37.438Z,46.20
2018-10-17T13:37:05.972Z,45.00
2018-10-17T13:39:34.078Z,43.60
2018-10-17T13:42:02.298Z,42.80
2018-10-17T13:44:30.419Z,44.10
2018-10-17T13:46:58.631Z,43.80
2018-10-17T13:49:26.768Z,43.50
2018-10-17T13:51:54.921Z,45.00
2018-10-17T13:54:23.091Z,43.00
2018-10-17T13:56:51.255Z,44.70
2018-10-17T13:59:19.505Z,43.90
2018-10-17T14:01:47.587Z,43.20
2018-10-17T14:04:15.861Z,46.00
2018-10-17T14:06:43.960Z,42.10
2018-10-17T14:09:12.246Z,44.10
2018-10-17T14:11:40.424Z,46.10
2018-10-17T14:14:08.553Z,47.50
2018-10-17T14:16:36.723Z,48.00
2018-10-17T14:19:04.902Z,46.90
2018-10-17T14:21:33.108Z,48.20
2018-10-17T14:24:01.296Z,48.50
2018-10-17T14:26:29.454Z,50.20
2018-10-17T14:28:57.643Z,49.00
2018-10-17T14:31:25.834Z,51.20
2018-10-17T14:33:54.023Z,50.70
2018-10-17T14:36:22.312Z,50.40
2018-10-17T14:38:50.442Z,48.70
2018-10-17T14:41:18.648Z,48.90
2018-10-17T14:43:46.966Z,48.20
2018-10-17T14:46:15.029Z,47.30
2018-10-17T14:48:43.220Z,47.70
2018-10-17T14:51:11.502Z,48.90
2018-10-17T14:53:39.602Z,47.20
2018-10-17T14:56:07.792Z,49.30
2018-10-17T14:58:35.970Z,47.30
2018-10-17T15:01:04.151Z,47.60
2018-10-17T15:03:32.326Z,48.80
2018-10-17T15:06:00.502Z,48.20
2018-10-17T15:08:28.719Z,48.30
2018-10-17T15:10:57.125Z,48.40
2018-10-17T15:13:25.075Z,48.50
2018-10-17T15:15:53.251Z,49.00
2018-10-17T15:18:21.427Z,48.60
2018-10-17T15:20:49.631Z,50.10
2018-10-17T15:23:17.812Z,50.40
2018-10-17T15:25:46.044Z,49.40
2018-10-17T15:28:14.275Z,50.10
2018-10-17T15:30:42.482Z,51.90
2018-10-17T15:33:10.701Z,52.50
2018-10-17T15:35:38.838Z,54.10
2018-10-17T15:38:07.035Z,55.30
2018-10-17T15:40:35.215Z,56.40
2018-10-17T15:43:03.453Z,56.90
2018-10-17T15:45:31.578Z,56.20
2018-10-17T15:47:59.756Z,56.30
2018-10-17T15:50:27.933Z,57.00
2018-10-17T15:52:56.116Z,58.00
2018-10-17T15:55:24.286Z,59.20
2018-10-17T15:57:52.471Z,59.50
2018-10-17T16:00:20.659Z,61.30
2018-10-17T16:02:48.961Z,61.70
2018-10-17T16:05:17.039Z,62.40
2018-10-17T16:07:45.252Z,63.00
2018-10-17T16:10:13.456Z,64.50
2018-10-17T16:12:41.641Z,65.00
2018-10-17T16:15:10.351Z,65.60
2018-10-17T16:17:38.508Z,66.20
2018-10-17T16:20:08.450Z,67.20
2018-10-17T16:22:36.673Z,67.80
2018-10-17T16:25:05.195Z,68.10
2018-10-17T16:27:33.362Z,68.40
2018-10-17T16:30:01.575Z,68.80
2018-10-17T16:32:29.711Z,69.50
2018-10-17T16:34:57.875Z,69.60
2018-10-17T16:37:26.048Z,70.30
2018-10-17T16:39:54.202Z,70.60
2018-10-17T16:42:22.375Z,71.30
2018-10-17T16:44:50.554Z,71.60
2018-10-17T16:47:18.760Z,71.50
2018-10-17T16:49:47.108Z,72.40
2018-10-17T16:52:15.157Z,72.50
2018-10-17T16:54:43.318Z,72.80
2018-10-17T16:57:11.526Z,73.20
2018-10-17T16:59:40.114Z,73.70
2018-10-17T17:02:08.711Z,74.00
2018-10-17T17:04:36.996Z,74.20
2018-10-17T17:07:05.327Z,74.80
2018-10-17T17:09:33.499Z,74.90
2018-10-17T17:12:01.717Z,75.00
2018-10-17T17:14:29.877Z,74.80
2018-10-17T17:16:58.012Z,75.80
2018-10-17T17:19:26.178Z,75.70
2018-10-17T17:21:54.357Z,76.30
2018-10-17T17:24:22.531Z,76.30
2018-10-17T17:26:50.737Z,76.80
2018-10-17T17:29:18.906Z,76.60
2018-10-17T17:31:47.088Z,77.50
2018-10-17T17:34:15.259Z,77.20
2018-10-17T17:36:43.437Z,77.70
2018-10-17T17:39:11.602Z,77.90
2018-10-17T17:41:39.804Z,78.00
2018-10-17T17:44:07.980Z,78.30
2018-10-17T17:46:36.198Z,78.60
2018-10-17T17:49:04.495Z,78.80
2018-10-17T17:51:32.659Z,79.20
2018-10-17T17:54:00.831Z,78.90
2018-10-17T17:56:29.016Z,79.10
2018-10-17T17:58:57.193Z,79.80
2018-10-17T18:01:25.374Z,79.60
2018-10-17T18:03:53.600Z,79.90
2018-10-17T18:06:21.801Z,80.20
2018-10-17T18:08:49.971Z,80.20
2018-10-17T18:11:22.352Z,80.50
2018-10-17T18:13:51.091Z,80.60
2018-10-17T18:16:19.262Z,80.60
2018-10-17T18:18:47.595Z,80.80
2018-10-17T18:21:15.995Z,81.10
2018-10-17T18:23:44.654Z,81.30
2018-10-17T18:26:13.061Z,81.30
2018-10-17T18:28:41.814Z,81.60
2018-10-17T18:31:10.083Z,81.40
2018-10-17T18:33:38.366Z,81.80
2018-10-17T18:36:06.641Z,81.90
2018-10-17T18:38:34.814Z,82.20
2018-10-17T18:41:02.982Z,82.20
2018-10-17T18:43:31.159Z,82.40
2018-10-17T18:45:59.339Z,82.40
2018-10-17T18:48:27.528Z,82.80
2018-10-17T18:50:55.824Z,82.80
2018-10-17T18:53:23.994Z,83.10
2018-10-17T18:55:52.348Z,83.20
2018-10-17T18:58:20.411Z,83.40
2018-10-17T19:00:48.582Z,83.10
2018-10-17T19:03:16.851Z,83.60
2018-10-17T19:05:44.935Z,83.70
2018-10-17T19:08:13.113Z,83.70
2018-10-17T19:10:41.295Z,83.80
2018-10-17T19:13:09.458Z,83.50
2018-10-17T19:15:37.639Z,83.50
2018-10-17T19:18:06.168Z,83.70
2018-10-17T19:20:34.334Z,83.90
2018-10-17T19:23:02.512Z,84.10
2018-10-17T19:25:30.705Z,84.00
2018-10-17T19:27:58.867Z,83.70
2018-10-17T19:30:27.050Z,83.90
2018-10-17T19:32:55.276Z,83.80
2018-10-17T19:35:23.418Z,84.10
2018-10-17T19:37:51.736Z,84.40
2018-10-17T19:40:19.952Z,83.80
2018-10-17T19:42:48.148Z,84.20
2018-10-17T19:45:16.376Z,84.40
2018-10-17T19:47:44.518Z,84.50
2018-10-17T19:50:12.675Z,84.80
2018-10-17T19:52:40.853Z,84.80
2018-10-17T19:55:10.010Z,85.10
2018-10-17T19:57:38.634Z,85.10
2018-10-17T20:00:09.330Z,85.20
2018-10-17T20:02:37.506Z,85.00
2018-10-17T20:05:05.978Z,85.20
2018-10-17T20:07:34.194Z,85.30
2018-10-17T20:10:02.339Z,85.10
2018-10-17T20:12:30.506Z,84.60
2018-10-17T20:14:58.761Z,84.70
2018-10-17T20:17:26.888Z,85.20
2018-10-17T20:19:55.064Z,85.50
2018-10-17T20:22:23.268Z,85.70
2018-10-17T20:24:51.528Z,85.70
2018-10-17T20:27:19.699Z,85.70
2018-10-17T20:29:47.878Z,85.50
2018-10-17T20:32:16.034Z,85.40
2018-10-17T20:34:44.204Z,85.50
2018-10-17T20:37:12.374Z,85.80
2018-10-17T20:39:40.535Z,86.10
2018-10-17T20:42:08.745Z,85.60
2018-10-17T20:44:36.878Z,85.70
2018-10-17T20:47:05.608Z,85.80
2018-10-17T20:49:33.766Z,86.10
2018-10-17T20:52:01.943Z,86.30
2018-10-17T20:54:30.113Z,86.10
2018-10-17T20:56:58.274Z,85.90
2018-10-17T20:59:26.706Z,85.90
2018-10-17T21:01:55.024Z,86.00
2018-10-17T21:04:23.160Z,86.10
2018-10-17T21:06:51.337Z,86.00
2018-10-17T21:09:19.518Z,86.20
2018-10-17T21:11:47.686Z,86.00
2018-10-17T21:14:15.976Z,86.20
2018-10-17T21:16:44.023Z,86.00
2018-10-17T21:19:12.219Z,85.90
2018-10-17T21:21:40.370Z,86.10
2018-10-17T21:24:08.545Z,86.40
2018-10-17T21:26:41.285Z,86.20
2018-10-17T21:29:09.575Z,86.30
2018-10-17T21:31:38.303Z,86.40
2018-10-17T21:34:06.479Z,86.40
2018-10-17T21:36:34.637Z,86.40
2018-10-17T21:39:03.037Z,86.30
2018-10-17T21:41:31.214Z,86.20
2018-10-17T21:43:59.411Z,86.50
2018-10-17T21:46:27.553Z,85.80
2018-10-17T21:48:55.726Z,85.90
2018-10-17T21:51:23.992Z,86.40
2018-10-17T21:53:52.155Z,86.60
2018-10-17T21:56:20.323Z,86.50
2018-10-17T21:58:48.515Z,86.20
2018-10-17T22:01:16.720Z,86.30
2018-10-17T22:03:44.923Z,86.50
2018-10-17T22:06:13.102Z,86.70
2018-10-17T22:08:41.263Z,86.50
2018-10-17T22:11:09.463Z,86.60
2018-10-17T22:13:37.671Z,86.50
2018-10-17T22:16:05.864Z,86.50
2018-10-17T22:18:34.038Z,86.40
2018-10-17T22:21:02.232Z,86.50
2018-10-17T22:23:30.410Z,86.60
2018-10-17T22:25:58.605Z,86.70
2018-10-17T22:28:26.771Z,86.60
2018-10-17T22:30:54.958Z,86.70
2018-10-17T22:33:23.135Z,86.70
2018-10-17T22:35:51.322Z,86.70
2018-10-17T22:38:19.500Z,86.70
2018-10-17T22:40:47.721Z,86.90
2018-10-17T22:43:15.935Z,86.80
2018-10-17T22:45:44.135Z,87.00
2018-10-17T22:48:12.311Z,86.70
2018-10-17T22:50:40.494Z,87.00
2018-10-17T22:53:08.666Z,87.10
2018-10-17T22:55:36.855Z,87.20
2018-10-17T22:58:05.279Z,86.90
2018-10-17T23:00:33.467Z,86.90
2018-10-17T23:03:01.642Z,87.00
2018-10-17T23:05:29.826Z,87.10
2018-10-17T23:07:58.043Z,87.20
2018-10-17T23:10:26.207Z,87.10
2018-10-17T23:12:54.772Z,87.20
2018-10-17T23:15:22.970Z,87.20
2018-10-17T23:17:51.142Z,87.50
2018-10-17T23:20:19.330Z,87.10
2018-10-17T23:22:47.507Z,87.30
2018-10-17T23:25:15.694Z,87.60
2018-10-17T23:27:43.875Z,87.10
2018-10-17T23:30:12.076Z,87.10
2018-10-17T23:32:40.410Z,87.10
2018-10-17T23:35:08.629Z,86.90
2018-10-17T23:37:36.935Z,86.90
2018-10-17T23:40:05.602Z,87.40
2018-10-17T23:42:33.994Z,87.60
2018-10-17T23:45:02.071Z,87.60
2018-10-17T23:47:30.274Z,87.60
2018-10-17T23:49:58.475Z,87.80
2018-10-17T23:52:26.659Z,87.50
2018-10-17T23:54:54.839Z,87.50
2018-10-17T23:57:23.015Z,87.20
2018-10-17T23:59:51.195Z,87.10
